Time;durP1;ratioP1;P1;durP2;ratioP2;P2;SDS_P1;SDS_P2;PMS_P1;PMS_P2;Temp;Humidity;BMP_temperature;BMP_pressure;BME280_temperature;BME280_humidity;BME280_pressure;Samples;Min_cycle;Max_cycle;Signal;HPM_P1;HPM_P2
2021/01/11 00:01:07;;;;;;;26.75;16.25;;;3.30;94.10;;;;;;5076687;28;20151;-51
2021/01/11 00:03:33;;;;;;;30.67;16.95;;;3.30;94.20;;;;;;5076210;28;20083;-54
2021/01/11 00:05:58;;;;;;;28.52;17.92;;;3.10;94.50;;;;;;5076432;28;20048;-51
2021/01/11 00:08:24;;;;;;;24.23;15.57;;;2.90;95.10;;;;;;5076547;28;20042;-51
2021/01/11 00:10:50;;;;;;;24.05;16.42;;;2.80;95.20;;;;;;5076317;28;20525;-51
2021/01/11 00:13:16;;;;;;;29.90;18.88;;;2.80;95.10;;;;;;5076365;28;20021;-51
2021/01/11 00:15:41;;;;;;;30.55;19.95;;;2.90;95.30;;;;;;5041250;28;20043;-51
2021/01/11 00:18:07;;;;;;;33.85;23.42;;;2.90;95.30;;;;;;5057659;28;20036;-52
2021/01/11 00:20:33;;;;;;;30.23;21.55;;;2.90;95.40;;;;;;5076319;28;20025;-51
2021/01/11 00:22:59;;;;;;;34.95;22.40;;;3.10;95.00;;;;;;5076273;28;20107;-51
2021/01/11 00:25:25;;;;;;;34.80;21.77;;;3.30;94.50;;;;;;5075958;28;20417;-51
2021/01/11 00:27:51;;;;;;;34.83;21.48;;;3.10;94.60;;;;;;5076198;28;20029;-51
2021/01/11 00:30:17;;;;;;;27.27;19.55;;;3.20;94.70;;;;;;5075930;28;20131;-51
2021/01/11 00:32:43;;;;;;;22.95;14.10;;;3.50;94.30;;;;;;5024454;28;20028;-51
2021/01/11 00:35:09;;;;;;;22.33;15.40;;;3.20;94.10;;;;;;5076157;28;20025;-51
2021/01/11 00:37:35;;;;;;;25.50;17.75;;;3.00;94.80;;;;;;5040935;28;20095;-51
2021/01/11 00:40:02;;;;;;;25.90;18.08;;;2.90;95.00;;;;;;5075739;28;20020;-51
2021/01/11 00:42:32;;;;;;;32.38;19.67;;;2.90;94.80;;;;;;5040875;28;20039;-51
2021/01/11 00:44:57;;;;;;;31.02;20.60;;;2.80;95.40;;;;;;5075969;28;20037;-51
2021/01/11 00:47:23;;;;;;;27.20;18.73;;;3.10;94.80;;;;;;5075582;28;20342;-51
2021/01/11 00:49:49;;;;;;;28.77;19.67;;;3.40;94.10;;;;;;5075921;28;20028;-52
2021/01/11 00:52:14;;;;;;;28.27;19.73;;;3.60;93.40;;;;;;5075914;28;20103;-51
2021/01/11 00:54:40;;;;;;;28.33;18.67;;;3.70;93.40;;;;;;5040502;28;20079;-51
2021/01/11 00:57:07;;;;;;;44.20;26.55;;;3.70;92.90;;;;;;5075805;28;20024;-52
2021/01/11 00:59:33;;;;;;;42.90;26.83;;;3.70;93.10;;;;;;5075412;28;20082;-51
2021/01/11 01:02:01;;;;;;;36.05;24.85;;;3.50;93.20;;;;;;5040266;28;20036;-52
2021/01/11 01:04:27;;;;;;;41.50;26.42;;;3.50;93.90;;;;;;5075406;28;20032;-51
2021/01/11 01:06:53;;;;;;;39.05;24.55;;;3.40;93.70;;;;;;5075461;28;20037;-51
2021/01/11 01:09:19;;;;;;;37.45;22.80;;;3.30;93.80;;;;;;5075001;28;20025;-51
2021/01/11 01:11:44;;;;;;;28.48;19.88;;;3.20;94.30;;;;;;5075791;28;20024;-51
2021/01/11 01:14:10;;;;;;;27.08;18.67;;;3.40;94.20;;;;;;5075249;28;20111;-51
2021/01/11 01:16:36;;;;;;;28.02;18.45;;;3.40;93.90;;;;;;5075096;28;20024;-51
2021/01/11 01:19:02;;;;;;;29.23;20.38;;;3.60;93.80;;;;;;5039856;28;20038;-51
2021/01/11 01:21:28;;;;;;;34.30;21.17;;;3.80;93.40;;;;;;5075313;28;20033;-51
2021/01/11 01:23:54;;;;;;;29.50;19.70;;;3.80;93.20;;;;;;5074888;28;20043;-51
2021/01/11 01:26:20;;;;;;;33.03;21.45;;;3.90;92.70;;;;;;5075391;28;20025;-51
2021/01/11 01:28:46;;;;;;;30.85;20.15;;;3.90;93.00;;;;;;5039696;28;20464;-51
2021/01/11 01:31:12;;;;;;;31.58;20.50;;;4.10;92.70;;;;;;5074770;28;20084;-52
2021/01/11 01:33:38;;;;;;;30.02;20.35;;;3.80;92.90;;;;;;5074009;28;20487;-51
2021/01/11 01:36:04;;;;;;;32.15;21.15;;;3.70;93.20;;;;;;5074722;28;20028;-51
2021/01/11 01:38:30;;;;;;;29.65;19.67;;;3.90;92.90;;;;;;5023145;28;20534;-51
2021/01/11 01:40:56;;;;;;;28.83;18.58;;;4.00;92.70;;;;;;5074915;28;20032;-51
2021/01/11 01:43:22;;;;;;;26.98;17.15;;;4.20;92.20;;;;;;5074702;28;20025;-51
2021/01/11 01:45:48;;;;;;;25.67;16.65;;;4.10;91.90;;;;;;5039463;28;20040;-51
2021/01/11 01:48:14;;;;;;;30.80;17.15;;;3.80;92.70;;;;;;5039527;28;20036;-51
2021/01/11 01:50:41;;;;;;;24.05;16.58;;;3.80;92.90;;;;;;5074482;28;20035;-51
2021/01/11 01:53:08;;;;;;;22.35;15.13;;;3.90;92.70;;;;;;5074408;28;20038;-51
2021/01/11 01:55:37;;;;;;;25.20;16.23;;;4.00;92.50;;;;;;5074442;28;20028;-51
2021/01/11 01:58:04;;;;;;;25.33;17.20;;;3.90;92.40;;;;;;5074526;28;20067;-51
2021/01/11 02:00:30;;;;;;;24.65;17.70;;;4.00;92.70;;;;;;5074138;28;20020;-51
2021/01/11 02:02:56;;;;;;;23.85;15.85;;;4.10;92.40;;;;;;5074317;28;20101;-51
2021/01/11 02:05:22;;;;;;;25.25;15.93;;;4.10;92.40;;;;;;5074083;28;20349;-51
2021/01/11 02:07:56;;;;;;;23.40;16.17;;;4.10;92.50;;;;;;5074341;28;20039;-54
2021/01/11 02:10:30;;;;;;;25.83;16.42;;;3.90;92.40;;;;;;5074194;28;20029;-51
2021/01/11 02:13:16;;;;;;;26.80;17.10;;;4.20;92.30;;;;;;5074018;28;20024;-51
2021/01/11 02:16:11;;;;;;;25.75;17.05;;;4.10;92.00;;;;;;5073908;28;20028;-52
2021/01/11 02:19:00;;;;;;;26.38;17.13;;;4.20;91.80;;;;;;5038442;28;20033;-52
2021/01/11 02:21:53;;;;;;;26.13;17.00;;;4.30;91.70;;;;;;5074079;28;20029;-51
2021/01/11 02:25:00;;;;;;;24.27;16.77;;;4.40;91.20;;;;;;5073852;28;20086;-52
2021/01/11 02:27:42;;;;;;;25.27;17.10;;;4.40;91.10;;;;;;5073819;28;20032;-51
2021/01/11 02:30:28;;;;;;;25.52;16.65;;;4.30;91.20;;;;;;5073770;28;20059;-51
2021/01/11 02:33:14;;;;;;;25.35;17.73;;;4.40;91.00;;;;;;5073674;28;20037;-51
2021/01/11 02:36:05;;;;;;;26.80;17.25;;;4.30;91.20;;;;;;5072911;28;20044;-51
2021/01/11 02:38:32;;;;;;;24.90;15.32;;;4.10;91.40;;;;;;4972473;28;20041;-51
2021/01/11 02:40:58;;;;;;;24.77;16.02;;;3.70;91.80;;;;;;4972555;28;20064;-51
2021/01/11 02:43:24;;;;;;;31.52;18.73;;;3.60;92.40;;;;;;4972569;28;20451;-51
2021/01/11 02:45:50;;;;;;;27.30;18.13;;;3.60;92.50;;;;;;4972586;28;20039;-52
2021/01/11 02:48:19;;;;;;;26.08;16.33;;;3.70;92.50;;;;;;4972279;28;20033;-51
2021/01/11 02:50:54;;;;;;;27.17;16.48;;;3.60;92.10;;;;;;4972337;28;20130;-51
2021/01/11 02:53:44;;;;;;;28.38;18.42;;;3.60;92.30;;;;;;4972074;28;20023;-51
2021/01/11 02:56:17;;;;;;;28.02;18.33;;;3.70;92.40;;;;;;4974060;28;20129;-51
2021/01/11 02:59:20;;;;;;;24.73;14.77;;;3.80;92.20;;;;;;4972912;28;20031;-51
2021/01/11 03:02:23;;;;;;;26.38;16.90;;;3.50;92.50;;;;;;4915008;29;20468;-51
2021/01/11 03:04:50;;;;;;;27.17;16.67;;;3.50;92.50;;;;;;4858823;29;20050;-51
2021/01/11 03:07:16;;;;;;;29.30;17.05;;;3.40;92.60;;;;;;4858918;29;20056;-51
2021/01/11 03:09:45;;;;;;;29.75;17.30;;;3.00;93.40;;;;;;4858804;29;20128;-51
2021/01/11 03:12:11;;;;;;;32.50;18.35;;;2.60;94.60;;;;;;4859107;29;20037;-51
2021/01/11 03:14:37;;;;;;;32.63;19.88;;;2.70;94.40;;;;;;4853936;29;20036;-50
2021/01/11 03:17:03;;;;;;;30.30;20.10;;;2.90;94.30;;;;;;4937999;29;20044;-51
2021/01/11 03:19:29;;;;;;;32.50;20.08;;;3.00;94.00;;;;;;4937919;29;20042;-51
2021/01/11 03:21:55;;;;;;;31.95;18.80;;;3.10;93.80;;;;;;4937688;29;20061;-51
2021/01/11 03:24:22;;;;;;;28.33;17.75;;;3.10;93.60;;;;;;4921736;29;20519;-51
2021/01/11 03:26:49;;;;;;;31.80;19.60;;;3.00;93.40;;;;;;4937780;29;20115;-51
2021/01/11 03:29:16;;;;;;;30.17;17.75;;;3.00;93.90;;;;;;4899441;29;20123;-51
2021/01/11 03:31:42;;;;;;;31.45;18.65;;;3.00;93.70;;;;;;4899678;29;20187;-51
2021/01/11 03:34:09;;;;;;;27.65;18.45;;;2.90;94.10;;;;;;4899615;29;20029;-51
2021/01/11 03:36:36;;;;;;;32.03;19.58;;;2.60;94.50;;;;;;4965409;28;20506;-51
2021/01/11 03:39:04;;;;;;;32.78;18.80;;;2.60;94.70;;;;;;4975794;28;20070;-51
2021/01/11 03:41:32;;;;;;;30.17;18.70;;;2.50;94.90;;;;;;4984402;28;20584;-51
2021/01/11 03:43:57;;;;;;;32.40;19.60;;;2.30;95.10;;;;;;5034542;28;20477;-53
2021/01/11 03:46:23;;;;;;;32.83;19.40;;;2.60;94.90;;;;;;5034541;28;20029;-51
2021/01/11 03:48:49;;;;;;;36.47;21.48;;;2.60;94.60;;;;;;5034535;28;20029;-51
2021/01/11 03:51:14;;;;;;;30.77;18.65;;;2.70;94.50;;;;;;5034406;28;20037;-51
2021/01/11 03:53:43;;;;;;;32.92;19.55;;;2.80;94.00;;;;;;5034452;28;20100;-51
2021/01/11 03:56:09;;;;;;;30.65;19.27;;;2.90;94.20;;;;;;5034563;28;20036;-51
2021/01/11 03:58:35;;;;;;;33.75;20.58;;;3.10;93.70;;;;;;5001356;28;20034;-51
2021/01/11 04:01:02;;;;;;;31.77;18.58;;;3.30;93.50;;;;;;5069011;28;20052;-51
2021/01/11 04:03:28;;;;;;;33.05;20.52;;;3.30;92.80;;;;;;5076515;28;20035;-51
2021/01/11 04:05:56;;;;;;;34.42;23.00;;;3.30;93.10;;;;;;5076437;28;20123;-51
2021/01/11 04:08:23;;;;;;;33.78;22.88;;;3.50;92.70;;;;;;5076256;28;20552;-51
2021/01/11 04:10:49;;;;;;;36.55;25.17;;;3.50;92.50;;;;;;5076408;28;20483;-51
2021/01/11 04:13:15;;;;;;;31.27;20.85;;;3.60;92.30;;;;;;5076114;28;20024;-51
2021/01/11 04:15:40;;;;;;;34.88;22.73;;;3.60;92.40;;;;;;5076160;28;20074;-51
2021/01/11 04:18:06;;;;;;;31.42;19.45;;;3.60;92.20;;;;;;5076139;28;20025;-51
2021/01/11 04:20:32;;;;;;;30.65;20.05;;;3.50;92.50;;;;;;5076279;28;20380;-51
2021/01/11 04:22:59;;;;;;;30.40;19.95;;;3.50;92.40;;;;;;5075754;28;20388;-51
2021/01/11 04:25:25;;;;;;;34.45;23.42;;;3.50;92.50;;;;;;5075977;28;20707;-51
2021/01/11 04:27:59;;;;;;;31.88;20.55;;;3.60;92.20;;;;;;5076065;28;20031;-51
2021/01/11 04:30:25;;;;;;;29.83;18.73;;;3.50;92.20;;;;;;5075736;28;20045;-51
2021/01/11 04:32:52;;;;;;;31.30;19.08;;;3.20;92.90;;;;;;5076149;28;20090;-51
2021/01/11 04:35:19;;;;;;;29.80;20.80;;;3.00;93.10;;;;;;5076302;28;20040;-51
2021/01/11 04:37:45;;;;;;;31.20;20.60;;;2.90;93.60;;;;;;5076013;28;20024;-51
2021/01/11 04:40:12;;;;;;;30.90;19.75;;;2.90;93.70;;;;;;5075888;28;20109;-51
2021/01/11 04:42:44;;;;;;;31.80;19.98;;;2.80;93.80;;;;;;5076063;28;20024;-51
2021/01/11 04:45:10;;;;;;;34.45;21.23;;;2.80;93.80;;;;;;5075626;28;20043;-51
2021/01/11 04:47:36;;;;;;;34.22;20.05;;;2.80;93.90;;;;;;5075784;28;20039;-51
2021/01/11 04:50:04;;;;;;;30.48;19.55;;;2.80;93.90;;;;;;5075678;28;20123;-52
2021/01/11 04:52:32;;;;;;;34.53;20.80;;;2.70;94.00;;;;;;5023897;28;20040;-51
2021/01/11 04:55:02;;;;;;;33.03;20.00;;;2.60;94.30;;;;;;5075843;28;20041;-51
2021/01/11 04:57:33;;;;;;;34.97;21.30;;;2.50;94.60;;;;;;5075618;28;20108;-51
2021/01/11 05:00:06;;;;;;;36.22;21.52;;;2.30;95.20;;;;;;5075455;28;20094;-52
2021/01/11 05:02:42;;;;;;;37.60;22.80;;;2.40;95.00;;;;;;5023776;28;20076;-51
2021/01/11 05:05:08;;;;;;;35.65;22.27;;;2.50;94.80;;;;;;5075342;28;20124;-51
2021/01/11 05:07:34;;;;;;;36.55;22.73;;;2.50;94.80;;;;;;5075386;28;20048;-51
2021/01/11 05:10:00;;;;;;;37.88;23.48;;;2.50;94.70;;;;;;5075346;28;20429;-51
2021/01/11 05:12:27;;;;;;;37.60;22.63;;;2.70;94.50;;;;;;5040084;28;20037;-51
2021/01/11 05:15:26;;;;;;;38.65;22.15;;;2.70;94.20;;;;;;5075216;28;20028;-51
2021/01/11 05:17:53;;;;;;;36.08;21.30;;;2.80;94.10;;;;;;4974224;28;20035;-51
2021/01/11 05:20:28;;;;;;;35.80;21.45;;;2.80;94.00;;;;;;4974043;28;20042;-51
2021/01/11 05:22:58;;;;;;;37.90;22.40;;;2.80;94.10;;;;;;4974266;28;20130;-51
2021/01/11 05:25:27;;;;;;;38.10;23.17;;;2.80;93.90;;;;;;4957082;28;20477;-51
2021/01/11 05:28:22;;;;;;;40.05;24.65;;;2.80;94.00;;;;;;4974006;28;20109;-51
2021/01/11 05:30:50;;;;;;;41.33;24.90;;;2.90;93.80;;;;;;4916733;29;20086;-51
2021/01/11 05:33:25;;;;;;;39.70;24.17;;;2.80;93.80;;;;;;4916589;29;20036;-51
2021/01/11 05:36:07;;;;;;;34.08;21.30;;;2.90;93.70;;;;;;4916521;29;20119;-51
2021/01/11 05:38:40;;;;;;;38.42;22.60;;;2.80;94.10;;;;;;4899857;29;20043;-51
2021/01/11 05:41:39;;;;;;;42.75;23.50;;;2.80;94.10;;;;;;4916360;29;20555;-51
2021/01/11 05:44:15;;;;;;;38.53;22.40;;;2.70;93.80;;;;;;4916278;29;20040;-51
2021/01/11 05:46:42;;;;;;;37.15;22.85;;;2.70;94.20;;;;;;4916292;29;20059;-51
2021/01/11 05:49:09;;;;;;;39.92;24.15;;;2.90;94.10;;;;;;4916547;29;20133;-51
2021/01/11 05:51:36;;;;;;;41.50;23.73;;;3.00;94.00;;;;;;4900346;29;20440;-51
2021/01/11 05:54:03;;;;;;;38.33;22.42;;;3.00;93.70;;;;;;4973439;28;20537;-51
2021/01/11 05:56:53;;;;;;;39.22;23.02;;;2.90;93.70;;;;;;4993193;28;20038;-51
2021/01/11 05:59:19;;;;;;;42.90;24.48;;;3.00;93.70;;;;;;4992743;28;20149;-50
2021/01/11 06:01:45;;;;;;;35.22;22.02;;;3.10;93.30;;;;;;4992890;28;20121;-51
2021/01/11 06:04:10;;;;;;;41.97;23.55;;;3.20;93.20;;;;;;4993036;28;20499;-51
2021/01/11 06:06:36;;;;;;;44.17;24.42;;;3.20;93.10;;;;;;5014327;28;20120;-50
2021/01/11 06:09:02;;;;;;;41.95;23.92;;;2.90;93.50;;;;;;5039135;28;20047;-51
2021/01/11 06:11:28;;;;;;;45.17;25.60;;;3.10;93.50;;;;;;5039255;28;20125;-51
2021/01/11 06:13:58;;;;;;;42.38;23.67;;;3.00;93.30;;;;;;5073884;28;20112;-51
2021/01/11 06:16:28;;;;;;;43.83;25.77;;;3.20;93.10;;;;;;5074149;28;20453;-51
2021/01/11 06:18:55;;;;;;;40.30;22.38;;;3.30;92.90;;;;;;5073752;28;20032;-51
2021/01/11 06:21:22;;;;;;;44.15;25.50;;;3.00;92.80;;;;;;5073968;28;20078;-51
2021/01/11 06:23:48;;;;;;;51.42;31.45;;;3.10;93.00;;;;;;5073872;28;20453;-51
2021/01/11 06:26:26;;;;;;;45.83;26.35;;;3.10;92.90;;;;;;5073899;28;20526;-51
2021/01/11 06:28:53;;;;;;;49.10;30.40;;;3.10;92.80;;;;;;5073634;28;20028;-51
2021/01/11 06:31:25;;;;;;;50.83;30.15;;;3.10;92.80;;;;;;5073960;28;20053;-51
2021/01/11 06:33:50;;;;;;;49.53;31.67;;;3.20;92.80;;;;;;5073888;28;20067;-51
2021/01/11 06:36:24;;;;;;;40.08;24.73;;;3.20;92.90;;;;;;5073685;28;20049;-51
2021/01/11 06:38:52;;;;;;;45.50;26.90;;;3.00;92.70;;;;;;5073821;28;20028;-52
2021/01/11 06:41:19;;;;;;;47.25;30.25;;;2.90;93.20;;;;;;5055944;28;20023;-51
2021/01/11 06:43:51;;;;;;;43.13;25.52;;;2.90;93.40;;;;;;5073451;28;20048;-51
2021/01/11 06:46:29;;;;;;;45.37;25.30;;;2.90;93.40;;;;;;5073808;28;20031;-51
2021/01/11 06:49:00;;;;;;;40.72;24.90;;;2.90;93.60;;;;;;5073237;28;20270;-51
2021/01/11 06:51:31;;;;;;;46.63;27.40;;;2.90;93.50;;;;;;5073340;28;20472;-52
2021/01/11 06:54:33;;;;;;;43.20;25.38;;;3.00;93.60;;;;;;5073757;28;20020;-51
2021/01/11 06:57:13;;;;;;;42.90;24.50;;;3.00;93.20;;;;;;4972345;28;20089;-51
2021/01/11 06:59:40;;;;;;;44.15;25.88;;;3.00;93.40;;;;;;4972757;28;20463;-51
2021/01/11 07:02:22;;;;;;;48.35;28.73;;;3.10;93.20;;;;;;4914986;29;20373;-48
2021/01/11 07:04:48;;;;;;;38.75;23.65;;;3.10;93.00;;;;;;4898607;29;20072;-50
2021/01/11 07:07:25;;;;;;;43.20;25.20;;;3.10;92.90;;;;;;4883735;29;20036;-52
2021/01/11 07:09:54;;;;;;;43.80;25.67;;;2.90;93.50;;;;;;4915161;29;20508;-50
2021/01/11 07:12:20;;;;;;;45.42;26.67;;;3.10;93.30;;;;;;4915109;29;20051;-55
2021/01/11 07:15:06;;;;;;;51.15;30.73;;;3.00;93.30;;;;;;4915096;29;20504;-52
2021/01/11 07:17:40;;;;;;;47.67;28.15;;;3.00;93.30;;;;;;4915127;29;20126;-51
2021/01/11 07:20:08;;;;;;;45.70;27.65;;;3.00;93.20;;;;;;4914897;29;20520;-52
2021/01/11 07:22:34;;;;;;;45.85;27.10;;;2.90;93.50;;;;;;4899210;29;20040;-51
2021/01/11 07:25:07;;;;;;;51.05;28.38;;;3.00;93.50;;;;;;4914988;29;20421;-51
2021/01/11 07:27:33;;;;;;;44.35;25.92;;;3.10;93.20;;;;;;4914881;29;20128;-51
2021/01/11 07:29:59;;;;;;;49.92;29.52;;;3.10;93.00;;;;;;4914806;29;20159;-51
2021/01/11 07:32:25;;;;;;;50.42;30.58;;;2.90;93.30;;;;;;4943237;28;20424;-51
2021/01/11 07:34:58;;;;;;;51.80;25.80;;;2.90;93.60;;;;;;5073056;28;20434;-51
2021/01/11 07:37:24;;;;;;;52.38;30.23;;;2.70;94.10;;;;;;5073302;28;20032;-51
2021/01/11 07:39:50;;;;;;;51.53;28.02;;;2.70;94.00;;;;;;5072973;28;20480;-51
2021/01/11 07:42:19;;;;;;;56.47;32.78;;;2.90;93.80;;;;;;5073086;28;20372;-51
2021/01/11 07:44:45;;;;;;;55.90;31.92;;;3.00;93.70;;;;;;5073163;28;20082;-50
2021/01/11 07:47:13;;;;;;;62.80;37.20;;;3.10;93.50;;;;;;5055158;28;20472;-51
2021/01/11 07:49:42;;;;;;;60.53;32.97;;;3.20;93.10;;;;;;5072837;28;20024;-51
2021/01/11 07:52:10;;;;;;;53.20;31.05;;;3.00;93.40;;;;;;5073283;28;20036;-51
2021/01/11 07:54:37;;;;;;;53.00;30.85;;;3.00;93.50;;;;;;5073030;28;20453;-51
2021/01/11 07:57:13;;;;;;;56.20;32.03;;;3.20;93.20;;;;;;5072630;28;20082;-50
2021/01/11 07:59:39;;;;;;;54.40;31.58;;;3.10;93.50;;;;;;5073182;28;20473;-50
2021/01/11 08:02:10;;;;;;;76.00;44.45;;;3.20;93.30;;;;;;5074942;28;20071;-52
2021/01/11 08:04:37;;;;;;;58.37;34.80;;;3.30;93.20;;;;;;5076565;28;20033;-52
2021/01/11 08:07:08;;;;;;;62.75;36.65;;;3.40;93.00;;;;;;5076429;28;20036;-51
2021/01/11 08:09:35;;;;;;;65.35;41.03;;;3.40;92.90;;;;;;5076603;28;20021;-51
2021/01/11 08:12:20;;;;;;;116.30;60.55;;;3.30;93.10;;;;;;5074703;28;20081;-51
2021/01/11 08:14:47;;;;;;;87.97;53.28;;;3.50;92.90;;;;;;5057157;28;20032;-51
2021/01/11 08:17:24;;;;;;;70.53;41.28;;;3.60;93.00;;;;;;5076222;28;20059;-52
2021/01/11 08:19:54;;;;;;;62.45;37.17;;;3.60;92.60;;;;;;5076341;28;20396;-51
2021/01/11 08:22:21;;;;;;;58.88;35.97;;;3.70;92.80;;;;;;5076308;28;20025;-51
2021/01/11 08:24:54;;;;;;;64.43;38.88;;;3.60;92.70;;;;;;5057590;28;20044;-51
2021/01/11 08:27:33;;;;;;;66.05;39.33;;;3.90;92.50;;;;;;5075712;28;20025;-51
2021/01/11 08:30:04;;;;;;;78.88;45.78;;;3.90;92.20;;;;;;5075733;28;20079;-51
2021/01/11 08:32:32;;;;;;;77.25;46.58;;;3.80;92.10;;;;;;5076327;28;20484;-51
2021/01/11 08:34:58;;;;;;;65.80;41.03;;;3.80;92.40;;;;;;5078205;28;20380;-52
2021/01/11 08:37:29;;;;;;;65.28;39.35;;;3.90;92.90;;;;;;5075877;28;20029;-51
2021/01/11 08:39:56;;;;;;;62.63;38.70;;;4.10;92.30;;;;;;5075942;28;20364;-51
2021/01/11 08:42:22;;;;;;;61.33;37.13;;;4.30;91.80;;;;;;5040333;28;20165;-51
2021/01/11 08:44:48;;;;;;;66.85;40.42;;;4.20;91.50;;;;;;5075855;28;20040;-51
2021/01/11 08:47:14;;;;;;;65.32;37.33;;;4.10;91.90;;;;;;5075903;28;20465;-51
2021/01/11 08:49:58;;;;;;;63.85;37.13;;;4.10;91.70;;;;;;5075920;28;20070;-52
2021/01/11 08:52:32;;;;;;;59.50;36.55;;;4.30;91.70;;;;;;5075568;28;20103;-51
2021/01/11 08:55:12;;;;;;;62.30;35.60;;;4.20;91.60;;;;;;5075835;28;20124;-52
2021/01/11 08:57:38;;;;;;;60.08;35.58;;;4.40;91.30;;;;;;5075552;28;20036;-51
2021/01/11 09:00:07;;;;;;;63.05;37.03;;;4.50;91.00;;;;;;5075788;28;20102;-52
2021/01/11 09:02:34;;;;;;;57.65;35.28;;;4.30;91.40;;;;;;5075736;28;20036;-52
2021/01/11 09:05:16;;;;;;;63.80;38.03;;;4.30;91.20;;;;;;5075399;28;20041;-52
2021/01/11 09:07:42;;;;;;;;;;;4.40;91.00;;;;;;5075945;28;20037;-52
2021/01/11 09:10:19;;;;;;;58.58;34.67;;;4.20;91.40;;;;;;5075216;28;20412;-52
2021/01/11 09:12:46;;;;;;;63.53;36.50;;;4.30;91.60;;;;;;5030389;28;20552;-52
2021/01/11 09:15:13;;;;;;;57.83;35.53;;;4.20;91.80;;;;;;5087755;28;20107;-52
2021/01/11 09:17:39;;;;;;;63.95;37.55;;;4.30;91.30;;;;;;5004298;28;20041;-51
2021/01/11 09:20:06;;;;;;;59.58;34.63;;;4.30;91.60;;;;;;4976728;28;20042;-53
2021/01/11 09:22:38;;;;;;;60.20;35.45;;;4.10;91.90;;;;;;5004836;28;20604;-51
2021/01/11 09:25:11;;;;;;;61.63;36.83;;;4.30;91.40;;;;;;5022963;28;20116;-49
2021/01/11 09:27:39;;;;;;;51.63;31.33;;;4.40;91.00;;;;;;5023031;28;20029;-52
2021/01/11 09:30:08;;;;;;;57.00;33.72;;;4.20;91.40;;;;;;5021438;28;20064;-50
2021/01/11 09:32:36;;;;;;;59.83;36.38;;;4.40;91.20;;;;;;5004033;28;20133;-50
2021/01/11 09:35:03;;;;;;;57.08;32.03;;;4.50;91.30;;;;;;5031095;28;20112;-50
2021/01/11 09:37:29;;;;;;;64.72;35.75;;;4.60;90.80;;;;;;5032737;28;20154;-50
2021/01/11 09:39:55;;;;;;;62.85;36.97;;;4.50;90.80;;;;;;5032888;28;20069;-55
2021/01/11 09:42:21;;;;;;;60.63;35.35;;;4.80;91.00;;;;;;5033166;28;20034;-50
2021/01/11 09:44:47;;;;;;;58.30;35.58;;;4.70;90.30;;;;;;5032853;28;20037;-49
2021/01/11 09:47:12;;;;;;;57.95;33.53;;;4.80;90.60;;;;;;5032481;28;20535;-52
2021/01/11 09:49:38;;;;;;;55.97;30.77;;;4.90;90.30;;;;;;5030994;28;20033;-50
2021/01/11 09:52:05;;;;;;;59.88;35.90;;;4.70;90.20;;;;;;4989133;28;20557;-50
2021/01/11 09:54:31;;;;;;;58.47;35.60;;;5.00;90.40;;;;;;5037597;28;20119;-50
2021/01/11 09:56:58;;;;;;;59.53;36.03;;;5.10;90.00;;;;;;5088919;28;20524;-51
2021/01/11 09:59:24;;;;;;;64.88;34.92;;;5.20;89.70;;;;;;5094740;28;20545;-50
2021/01/11 10:01:50;;;;;;;71.30;42.63;;;4.90;89.70;;;;;;5094289;28;20028;-50
2021/01/11 10:04:18;;;;;;;60.97;37.63;;;5.20;89.40;;;;;;5094653;28;20016;-51
2021/01/11 10:06:44;;;;;;;66.30;41.00;;;5.40;88.10;;;;;;5094060;28;20058;-51
2021/01/11 10:09:22;;;;;;;61.40;38.40;;;5.20;89.10;;;;;;5084546;28;20032;-50
2021/01/11 10:11:51;;;;;;;65.95;41.28;;;5.40;88.30;;;;;;5074698;28;20024;-50
2021/01/11 10:14:17;;;;;;;67.22;42.63;;;5.70;88.00;;;;;;5074170;28;20050;-50
2021/01/11 10:16:43;;;;;;;70.38;40.22;;;5.90;87.00;;;;;;5038897;28;20036;-50
2021/01/11 10:19:13;;;;;;;79.78;46.10;;;5.80;87.10;;;;;;5073958;28;20035;-50
2021/01/11 10:21:39;;;;;;;113.72;58.72;;;6.10;96.90;;;;;;5074255;28;20035;-50
2021/01/11 10:24:06;;;;;;;73.85;43.10;;;5.90;96.20;;;;;;5073464;28;20028;-50
2021/01/11 10:26:33;;;;;;;59.42;37.83;;;5.90;91.40;;;;;;5005810;28;20131;-50
2021/01/11 10:28:59;;;;;;;59.67;36.20;;;5.90;91.10;;;;;;5073951;28;20020;-50
2021/01/11 10:31:25;;;;;;;62.78;38.58;;;5.90;85.80;;;;;;5073406;28;20052;-50
2021/01/11 10:33:52;;;;;;;62.65;37.28;;;5.80;86.30;;;;;;5073820;28;20100;-50
2021/01/11 10:36:18;;;;;;;88.93;47.75;;;5.60;86.00;;;;;;5074029;28;20024;-50
2021/01/11 10:38:45;;;;;;;78.50;43.03;;;5.50;87.30;;;;;;5073578;28;20146;-51
2021/01/11 10:41:19;;;;;;;66.47;39.25;;;5.80;87.50;;;;;;5081203;28;20031;-50
2021/01/11 10:43:46;;;;;;;82.85;46.45;;;6.30;96.70;;;;;;5092921;28;20047;-50
2021/01/11 10:46:13;;;;;;;65.10;39.58;;;;;;;;;;5093722;28;20040;-50
2021/01/11 10:48:40;;;;;;;62.83;37.28;;;6.30;83.40;;;;;;5094159;28;20149;-51
2021/01/11 10:51:10;;;;;;;64.20;37.53;;;6.20;84.50;;;;;;5093910;28;20032;-50
2021/01/11 10:53:37;;;;;;;58.10;36.28;;;5.90;85.20;;;;;;5093833;28;20108;-50
2021/01/11 10:56:03;;;;;;;64.22;37.15;;;5.80;85.40;;;;;;5089183;28;20052;-50
2021/01/11 10:58:29;;;;;;;61.58;36.92;;;5.70;85.90;;;;;;5021480;28;20071;-50
2021/01/11 11:00:55;;;;;;;67.05;39.90;;;5.50;86.30;;;;;;5073411;28;20818;-51
2021/01/11 11:03:20;;;;;;;58.03;35.70;;;5.80;86.60;;;;;;5021931;28;20037;-55
2021/01/11 11:05:46;;;;;;;57.13;35.83;;;5.70;86.20;;;;;;5073174;28;20106;-50
2021/01/11 11:08:12;;;;;;;60.75;36.72;;;5.30;87.10;;;;;;5022014;28;20045;-53
2021/01/11 11:10:38;;;;;;;61.67;37.58;;;5.40;87.50;;;;;;5073624;28;20020;-52
2021/01/11 11:13:04;;;;;;;59.50;35.95;;;5.40;87.10;;;;;;5021893;28;20036;-55
2021/01/11 11:15:30;;;;;;;61.55;36.42;;;5.50;87.40;;;;;;5073297;28;20119;-54
2021/01/11 11:17:56;;;;;;;57.60;36.13;;;5.50;86.90;;;;;;5073590;28;20093;-54
2021/01/11 11:20:22;;;;;;;63.85;37.08;;;5.40;88.00;;;;;;5073455;28;20647;-52
2021/01/11 11:22:47;;;;;;;59.15;35.42;;;5.00;88.80;;;;;;5073450;28;20029;-55
2021/01/11 11:25:14;;;;;;;61.25;35.42;;;5.10;88.60;;;;;;5073206;28;20475;-56
2021/01/11 11:27:41;;;;;;;61.13;37.08;;;5.20;89.10;;;;;;5073534;28;20039;-56
2021/01/11 11:30:07;;;;;;;62.15;36.30;;;5.20;89.30;;;;;;5024313;28;20485;-51
2021/01/11 11:32:34;;;;;;;62.60;39.53;;;5.30;88.90;;;;;;5081058;28;20024;-51
2021/01/11 11:35:05;;;;;;;58.33;37.47;;;5.30;89.50;;;;;;5082442;28;20475;-49
2021/01/11 11:37:32;;;;;;;66.65;37.40;;;5.30;88.60;;;;;;5043690;28;20123;-50
2021/01/11 11:39:58;;;;;;;58.83;33.47;;;5.50;88.10;;;;;;5077110;28;20463;-51
2021/01/11 11:42:23;;;;;;;59.78;37.50;;;5.40;87.30;;;;;;5077156;28;20020;-51
2021/01/11 11:44:49;;;;;;;59.88;36.72;;;5.20;88.20;;;;;;5076680;28;20530;-53
2021/01/11 11:47:15;;;;;;;61.53;38.08;;;5.20;88.60;;;;;;5025047;28;20052;-51
2021/01/11 11:49:40;;;;;;;61.90;37.20;;;5.30;88.50;;;;;;5077078;28;20035;-52
2021/01/11 11:52:06;;;;;;;56.28;36.47;;;5.40;87.60;;;;;;5076884;28;20028;-51
2021/01/11 11:54:32;;;;;;;60.30;37.50;;;5.20;88.90;;;;;;5077147;28;20028;-52
2021/01/11 11:56:59;;;;;;;61.03;37.88;;;5.30;88.70;;;;;;5058914;28;20027;-51
2021/01/11 11:59:25;;;;;;;62.92;38.85;;;5.60;87.10;;;;;;5042106;28;20036;-51
2021/01/11 12:01:50;;;;;;;58.80;38.00;;;5.60;87.00;;;;;;5024904;28;20036;-51
2021/01/11 12:04:16;;;;;;;65.22;39.45;;;5.60;86.80;;;;;;5076724;28;20055;-49
2021/01/11 12:06:44;;;;;;;59.70;36.17;;;5.40;88.00;;;;;;5076678;28;20064;-50
2021/01/11 12:09:11;;;;;;;66.32;39.28;;;5.50;87.60;;;;;;5076597;28;20112;-50
2021/01/11 12:11:44;;;;;;;63.72;40.00;;;5.40;87.40;;;;;;5076555;28;20031;-51
2021/01/11 12:14:10;;;;;;;61.75;38.47;;;5.10;89.40;;;;;;5076722;28;20032;-50
2021/01/11 12:16:36;;;;;;;54.38;34.15;;;5.20;88.40;;;;;;5076242;28;20024;-50
2021/01/11 12:19:03;;;;;;;58.72;36.70;;;5.40;88.00;;;;;;5076308;28;20027;-50
2021/01/11 12:21:33;;;;;;;57.97;36.42;;;5.50;87.40;;;;;;5076302;28;20071;-50
2021/01/11 12:24:00;;;;;;;63.70;39.65;;;5.40;87.40;;;;;;5075992;28;20090;-50
2021/01/11 12:26:26;;;;;;;60.97;39.80;;;5.20;88.90;;;;;;5076290;28;20356;-50
2021/01/11 12:28:52;;;;;;;60.58;36.95;;;4.80;90.10;;;;;;5076131;28;20107;-49
2021/01/11 12:31:29;;;;;;;71.95;42.83;;;4.50;90.90;;;;;;5040603;28;20094;-51
2021/01/11 12:33:55;;;;;;;58.55;36.35;;;4.70;90.30;;;;;;5076123;28;20033;-52
2021/01/11 12:36:26;;;;;;;62.90;39.70;;;4.90;89.60;;;;;;5076084;28;20056;-51
2021/01/11 12:38:53;;;;;;;63.67;38.80;;;4.60;90.60;;;;;;5076005;28;20051;-51
2021/01/11 12:41:20;;;;;;;64.60;40.88;;;5.00;89.50;;;;;;5076265;28;20361;-51
2021/01/11 12:43:47;;;;;;;66.80;40.78;;;5.30;89.00;;;;;;5075751;28;20035;-52
2021/01/11 12:46:14;;;;;;;61.95;38.75;;;5.50;88.00;;;;;;5075750;28;20028;-51
2021/01/11 12:48:40;;;;;;;66.70;42.10;;;5.80;86.90;;;;;;5075479;28;20056;-50